createdAt,value
2023-01-19T00:01:23.434Z,10.95
2023-01-19T00:03:51.153Z,10.95
2023-01-19T00:06:19.024Z,9.77
2023-01-19T00:08:48.588Z,9.43
2023-01-19T00:11:17.417Z,10.68
2023-01-19T00:13:49.549Z,10.02
2023-01-19T00:16:17.468Z,10.63
2023-01-19T00:18:46.248Z,10.77
2023-01-19T00:21:14.665Z,10.43
2023-01-19T00:23:42.314Z,10.27
2023-01-19T00:26:10.198Z,9.68
2023-01-19T00:31:04.780Z,11.82
2023-01-19T00:33:32.371Z,11.05
2023-01-19T00:36:01.111Z,9.18
2023-01-19T00:38:28.472Z,11.20
2023-01-19T00:40:55.810Z,10.85
2023-01-19T00:43:23.201Z,11.98
2023-01-19T00:45:50.976Z,10.45
2023-01-19T00:50:45.577Z,11.25
2023-01-19T00:53:14.247Z,11.70
2023-01-19T00:55:41.597Z,11.30
2023-01-19T00:58:09.536Z,8.60
2023-01-19T01:00:36.956Z,10.73
2023-01-19T01:03:04.956Z,11.07
2023-01-19T01:05:32.533Z,10.48
2023-01-19T01:07:59.903Z,11.30
2023-01-19T01:10:29.472Z,11.25
2023-01-19T01:13:21.323Z,11.55
2023-01-19T01:15:44.213Z,11.27
2023-01-19T01:18:11.558Z,11.00
2023-01-19T01:20:38.943Z,10.70
2023-01-19T01:23:06.299Z,11.35
2023-01-19T01:25:37.698Z,10.75
2023-01-19T01:28:06.878Z,11.48
2023-01-19T01:30:34.285Z,11.35
2023-01-19T01:33:01.987Z,10.80
2023-01-19T01:35:29.598Z,11.45
2023-01-19T01:37:58.763Z,9.85
2023-01-19T01:40:26.143Z,9.63
2023-01-19T01:42:54.880Z,10.18
2023-01-19T01:45:28.672Z,9.20
2023-01-19T01:47:56.584Z,10.30
2023-01-19T01:53:07.115Z,9.73
2023-01-19T01:55:37.485Z,10.85
2023-01-19T01:58:06.817Z,10.05
2023-01-19T02:00:54.656Z,6.90
2023-01-19T02:03:22.479Z,10.07
2023-01-19T02:05:49.936Z,9.07
2023-01-19T02:08:37.495Z,9.95
2023-01-19T02:11:22.673Z,11.15
2023-01-19T02:13:51.626Z,9.30
2023-01-19T02:16:19.291Z,9.38
2023-01-19T02:18:46.653Z,10.57
2023-01-19T02:21:18.798Z,9.77
2023-01-19T02:23:49.218Z,8.52
2023-01-19T02:26:17.859Z,8.00
2023-01-19T02:28:47.270Z,10.82
2023-01-19T02:31:15.191Z,10.82
2023-01-19T02:36:10.984Z,10.00
2023-01-19T02:38:39.380Z,9.65
2023-01-19T02:41:09.333Z,9.32
2023-01-19T02:43:37.112Z,10.73
2023-01-19T02:46:04.800Z,9.45
2023-01-19T02:48:32.192Z,10.45
2023-01-19T02:51:04.174Z,10.65
2023-01-19T02:53:48.535Z,9.32
2023-01-19T02:56:30.780Z,10.57
2023-01-19T02:59:01.904Z,10.50
2023-01-19T03:01:33.828Z,9.77
2023-01-19T03:04:07.585Z,9.40
2023-01-19T03:06:43.904Z,9.70
2023-01-19T03:09:13.946Z,10.13
2023-01-19T03:11:43.255Z,11.05
2023-01-19T03:14:12.885Z,10.25
2023-01-19T03:16:42.052Z,11.32
2023-01-19T03:19:11.682Z,10.48
2023-01-19T03:21:40.277Z,10.80
2023-01-19T03:24:08.918Z,10.98
2023-01-19T03:26:38.052Z,9.85
2023-01-19T03:29:06.826Z,9.68
2023-01-19T03:31:35.904Z,9.25
2023-01-19T03:34:04.482Z,9.90
2023-01-19T03:36:33.331Z,10.55
2023-01-19T03:39:01.424Z,9.02
2023-01-19T03:41:29.096Z,9.77
2023-01-19T03:43:57.550Z,9.77
2023-01-19T03:46:25.629Z,9.75
2023-01-19T03:48:54.858Z,10.05
2023-01-19T03:51:22.962Z,9.63
2023-01-19T03:53:50.763Z,8.05
2023-01-19T03:58:47.468Z,9.80
2023-01-19T04:01:15.289Z,8.95
2023-01-19T04:06:11.552Z,9.38
2023-01-19T04:08:38.892Z,8.85
2023-01-19T04:11:06.447Z,7.70
2023-01-19T04:13:33.810Z,8.60
2023-01-19T04:16:01.665Z,7.47
2023-01-19T04:18:29.665Z,8.95
2023-01-19T04:21:00.293Z,8.32
2023-01-19T04:23:29.205Z,8.80
2023-01-19T04:25:59.696Z,8.93
2023-01-19T04:28:27.647Z,9.18
2023-01-19T04:33:23.229Z,8.23
2023-01-19T04:35:53.431Z,6.97
2023-01-19T04:38:21.817Z,8.02
2023-01-19T04:40:51.069Z,8.63
2023-01-19T04:43:18.458Z,9.85
2023-01-19T04:45:46.296Z,9.15
2023-01-19T04:50:41.478Z,10.65
2023-01-19T04:53:08.930Z,9.70
2023-01-19T04:55:37.754Z,11.30
2023-01-19T04:58:06.571Z,13.38
2023-01-19T05:00:33.915Z,12.00
2023-01-19T05:03:02.181Z,11.23
2023-01-19T05:05:29.951Z,11.20
2023-01-19T05:07:57.367Z,10.35
2023-01-19T05:10:25.078Z,12.35
2023-01-19T05:12:52.526Z,11.60
2023-01-19T05:15:21.229Z,6.20
2023-01-19T05:17:48.820Z,11.25
2023-01-19T05:20:17.253Z,12.18
2023-01-19T05:22:44.664Z,12.18
2023-01-19T05:25:12.000Z,9.93
2023-01-19T05:27:39.514Z,7.82
2023-01-19T05:30:07.568Z,8.43
2023-01-19T05:32:36.242Z,10.02
2023-01-19T05:35:03.647Z,9.35
2023-01-19T05:37:32.629Z,9.00
2023-01-19T05:40:00.127Z,11.20
2023-01-19T05:42:27.507Z,9.32
2023-01-19T05:44:54.859Z,11.00
2023-01-19T05:47:22.265Z,11.60
2023-01-19T05:49:50.985Z,10.73
2023-01-19T05:52:18.354Z,9.40
2023-01-19T05:54:45.782Z,11.35
2023-01-19T05:57:13.147Z,10.25
2023-01-19T05:59:40.509Z,10.55
2023-01-19T06:02:08.544Z,13.45
2023-01-19T06:04:36.036Z,12.68
2023-01-19T06:07:06.461Z,13.48
2023-01-19T06:09:33.831Z,12.13
2023-01-19T06:12:01.366Z,12.02
2023-01-19T06:14:28.763Z,11.50
2023-01-19T06:16:56.090Z,11.75
2023-01-19T06:19:23.475Z,9.60
2023-01-19T06:21:52.204Z,12.68
2023-01-19T06:24:21.285Z,13.13
2023-01-19T06:26:48.651Z,12.27
2023-01-19T06:29:16.169Z,12.57
2023-01-19T06:31:43.596Z,11.98
2023-01-19T06:34:11.353Z,7.53
2023-01-19T06:39:06.442Z,9.73
2023-01-19T06:41:35.457Z,12.85
2023-01-19T06:44:03.011Z,12.25
2023-01-19T06:46:30.437Z,12.13
2023-01-19T06:48:58.168Z,12.65
2023-01-19T06:53:52.814Z,10.85
2023-01-19T06:56:20.161Z,10.02
2023-01-19T06:58:50.361Z,11.85
2023-01-19T07:01:17.759Z,11.77
2023-01-19T07:03:46.871Z,8.63
2023-01-19T07:06:14.404Z,12.23
2023-01-19T07:08:41.790Z,11.23
2023-01-19T07:11:25.800Z,12.27
2023-01-19T07:13:58.495Z,10.65
2023-01-19T07:16:25.954Z,12.10
2023-01-19T07:18:53.347Z,13.70
2023-01-19T07:21:20.717Z,12.45
2023-01-19T07:23:49.003Z,12.23
2023-01-19T07:26:18.470Z,12.60
2023-01-19T07:28:47.379Z,11.50
2023-01-19T07:31:17.799Z,11.75
2023-01-19T07:33:45.269Z,12.20
2023-01-19T07:36:12.754Z,8.82
2023-01-19T07:38:40.119Z,12.23
2023-01-19T07:41:08.177Z,13.88
2023-01-19T07:43:35.857Z,15.55
2023-01-19T07:46:04.016Z,11.98
2023-01-19T07:48:32.894Z,8.48
2023-01-19T07:51:00.755Z,13.88
2023-01-19T07:55:56.348Z,14.10
2023-01-19T07:58:23.721Z,12.98
2023-01-19T08:00:51.306Z,13.65
2023-01-19T08:03:18.844Z,13.13
2023-01-19T08:05:50.502Z,15.18
2023-01-19T08:08:18.208Z,13.70
2023-01-19T08:10:46.167Z,15.85
2023-01-19T08:13:13.644Z,14.93
2023-01-19T08:15:41.276Z,15.65
2023-01-19T08:18:09.780Z,16.58
2023-01-19T08:20:37.336Z,15.45
2023-01-19T08:23:06.145Z,16.90
2023-01-19T08:25:34.390Z,14.18
2023-01-19T08:28:02.315Z,19.40
2023-01-19T08:30:30.256Z,18.20
2023-01-19T08:33:04.033Z,17.55
2023-01-19T08:35:31.762Z,18.67
2023-01-19T08:38:01.340Z,18.40
2023-01-19T08:40:30.613Z,16.20
2023-01-19T08:43:04.682Z,17.65
2023-01-19T08:45:32.102Z,16.63
2023-01-19T08:47:59.904Z,11.85
2023-01-19T08:52:56.718Z,15.38
2023-01-19T08:55:24.100Z,15.57
2023-01-19T08:57:53.500Z,17.15
2023-01-19T09:00:21.610Z,16.55
2023-01-19T09:02:49.075Z,16.63
2023-01-19T09:05:16.681Z,15.32
2023-01-19T09:07:45.415Z,18.30
2023-01-19T09:10:13.107Z,17.42
2023-01-19T09:12:40.503Z,18.17
2023-01-19T09:15:10.750Z,17.20
2023-01-19T09:17:38.260Z,19.13
2023-01-19T09:20:06.060Z,18.48
2023-01-19T09:25:01.301Z,19.02
2023-01-19T09:27:28.647Z,19.67
2023-01-19T09:29:56.074Z,21.45
2023-01-19T09:32:24.757Z,21.50
2023-01-19T09:34:53.809Z,23.10
2023-01-19T09:37:21.160Z,22.50
2023-01-19T09:39:48.651Z,25.95
2023-01-19T09:42:19.821Z,24.73
2023-01-19T09:44:48.754Z,25.10
2023-01-19T09:47:17.426Z,27.58
2023-01-19T09:49:48.455Z,26.30
2023-01-19T09:52:16.558Z,25.85
2023-01-19T09:54:47.572Z,26.35
2023-01-19T09:57:15.044Z,27.50
2023-01-19T09:59:43.828Z,22.50
2023-01-19T10:02:17.472Z,26.00
2023-01-19T10:04:52.612Z,26.27
2023-01-19T10:07:25.747Z,24.05
2023-01-19T10:10:01.176Z,26.92
2023-01-19T10:12:33.559Z,25.65
2023-01-19T10:15:04.558Z,26.88
2023-01-19T10:17:38.630Z,22.80
2023-01-19T10:20:12.112Z,27.15
2023-01-19T10:22:39.756Z,26.55
2023-01-19T10:25:15.163Z,23.17
2023-01-19T10:27:42.816Z,24.77
2023-01-19T10:30:16.466Z,21.73
2023-01-19T10:32:44.377Z,23.88
2023-01-19T10:37:41.878Z,24.08
2023-01-19T10:40:17.018Z,26.05
2023-01-19T10:42:44.737Z,20.95
2023-01-19T10:45:15.636Z,27.90
2023-01-19T10:47:43.554Z,28.83
2023-01-19T10:52:39.655Z,26.70
2023-01-19T10:55:09.018Z,28.42
2023-01-19T10:57:38.271Z,29.20
2023-01-19T11:00:06.265Z,29.60
2023-01-19T11:07:30.143Z,28.38
2023-01-19T11:10:21.662Z,28.67
2023-01-19T11:12:56.482Z,28.65
2023-01-19T11:15:25.307Z,27.35
2023-01-19T11:17:53.476Z,29.40
2023-01-19T11:20:22.039Z,28.77
2023-01-19T11:22:49.817Z,30.05
2023-01-19T11:25:25.827Z,30.02
2023-01-19T11:27:53.259Z,31.02
2023-01-19T11:30:21.824Z,26.80
2023-01-19T11:32:49.354Z,30.88
2023-01-19T11:35:35.195Z,31.23
2023-01-19T11:38:06.321Z,32.35
2023-01-19T11:40:36.033Z,32.22
2023-01-19T11:43:03.838Z,30.45
2023-01-19T11:45:33.660Z,29.88
2023-01-19T11:48:04.208Z,29.20
2023-01-19T11:50:34.034Z,24.98
2023-01-19T11:53:02.196Z,29.48
2023-01-19T11:55:33.648Z,29.00
2023-01-19T11:58:04.277Z,29.90
2023-01-19T12:00:35.567Z,28.67
2023-01-19T12:03:05.609Z,29.42
2023-01-19T12:05:34.233Z,29.48
2023-01-19T12:08:06.727Z,31.23
2023-01-19T12:10:36.331Z,29.92
2023-01-19T12:13:05.275Z,29.40
2023-01-19T12:15:33.855Z,29.73
2023-01-19T12:18:02.500Z,29.02
2023-01-19T12:20:32.520Z,28.48
2023-01-19T12:23:04.415Z,30.13
2023-01-19T12:25:36.821Z,30.95
2023-01-19T12:28:07.455Z,30.55
2023-01-19T12:30:34.938Z,32.00
2023-01-19T12:33:21.541Z,28.92
2023-01-19T12:35:56.018Z,32.95
2023-01-19T12:38:25.172Z,31.70
2023-01-19T12:41:12.560Z,33.42
2023-01-19T12:43:41.286Z,29.85
2023-01-19T12:46:19.316Z,30.95
2023-01-19T12:48:46.765Z,30.80
2023-01-19T12:51:23.207Z,32.15
2023-01-19T12:53:53.888Z,29.75
2023-01-19T12:56:28.164Z,29.17
2023-01-19T12:58:56.928Z,31.50
2023-01-19T13:01:24.899Z,33.85
2023-01-19T13:03:59.874Z,33.17
2023-01-19T13:06:45.993Z,32.65
2023-01-19T13:09:29.414Z,33.50
2023-01-19T13:12:19.965Z,32.85
2023-01-19T13:14:50.579Z,34.80
2023-01-19T13:17:26.956Z,34.40
2023-01-19T13:19:57.017Z,34.70
2023-01-19T13:22:43.376Z,34.95
2023-01-19T13:25:12.669Z,34.05
2023-01-19T13:27:40.999Z,35.88
2023-01-19T13:30:16.789Z,33.58
2023-01-19T13:32:44.252Z,33.13
2023-01-19T13:35:14.699Z,32.83
2023-01-19T13:37:44.312Z,32.38
2023-01-19T13:40:17.776Z,29.95
2023-01-19T13:42:45.260Z,32.38
2023-01-19T13:45:21.301Z,31.67
2023-01-19T13:47:49.624Z,30.38
2023-01-19T13:50:19.713Z,29.33
2023-01-19T13:52:48.786Z,27.25
2023-01-19T13:55:16.827Z,29.73
2023-01-19T13:57:45.533Z,28.13
2023-01-19T14:00:18.716Z,27.63
2023-01-19T14:02:54.084Z,27.50
2023-01-19T14:05:22.944Z,26.83
2023-01-19T14:07:59.983Z,26.98
2023-01-19T14:10:27.831Z,26.80
2023-01-19T14:15:28.757Z,29.45
2023-01-19T14:18:08.980Z,27.88
2023-01-19T14:20:36.941Z,25.83
2023-01-19T14:25:32.231Z,27.23
2023-01-19T14:28:18.432Z,28.73
2023-01-19T14:30:55.440Z,25.65
2023-01-19T14:33:36.217Z,26.70
2023-01-19T14:36:10.989Z,26.52
2023-01-19T14:38:39.398Z,23.70
2023-01-19T14:41:07.219Z,24.75
2023-01-19T14:43:34.639Z,25.08
2023-01-19T14:46:03.380Z,23.80
2023-01-19T14:48:31.189Z,23.10
2023-01-19T14:53:33.706Z,22.20
2023-01-19T14:56:02.216Z,21.52
2023-01-19T14:58:32.247Z,24.55
2023-01-19T15:00:59.774Z,21.83
2023-01-19T15:03:43.391Z,23.25
2023-01-19T15:06:14.191Z,23.92
2023-01-19T15:08:41.559Z,22.55
2023-01-19T15:11:10.839Z,28.05
2023-01-19T15:13:39.174Z,25.38
2023-01-19T15:16:08.717Z,25.02
2023-01-19T15:18:38.406Z,24.42
2023-01-19T15:21:05.922Z,27.05
2023-01-19T15:23:33.666Z,25.38
2023-01-19T15:26:01.402Z,23.15
2023-01-19T15:30:57.528Z,22.80
2023-01-19T15:33:25.727Z,22.83
2023-01-19T15:35:54.533Z,23.63
2023-01-19T15:38:22.313Z,22.92
2023-01-19T15:40:51.646Z,23.83
2023-01-19T15:43:20.895Z,24.27
2023-01-19T15:45:50.049Z,20.45
2023-01-19T15:48:19.779Z,22.67
2023-01-19T15:50:47.709Z,25.20
2023-01-19T15:55:43.851Z,21.85
2023-01-19T15:58:13.851Z,22.23
2023-01-19T16:00:41.714Z,23.25
2023-01-19T16:03:09.424Z,22.92
2023-01-19T16:05:42.908Z,23.23
2023-01-19T16:08:11.294Z,23.73
2023-01-19T16:10:38.637Z,23.42
2023-01-19T16:13:07.565Z,25.40
2023-01-19T16:15:35.442Z,24.45
2023-01-19T16:20:30.068Z,24.10
2023-01-19T16:23:09.685Z,23.02
2023-01-19T16:25:41.445Z,24.55
2023-01-19T16:28:10.112Z,24.25
2023-01-19T16:30:37.543Z,24.92
2023-01-19T16:33:05.215Z,23.35
2023-01-19T16:35:32.561Z,20.88
2023-01-19T16:37:59.987Z,23.23
2023-01-19T16:40:27.321Z,22.60
2023-01-19T16:42:54.675Z,22.35
2023-01-19T16:45:23.421Z,24.67
2023-01-19T16:47:52.138Z,22.73
2023-01-19T16:50:19.901Z,22.23
2023-01-19T16:52:47.278Z,23.60
2023-01-19T16:55:14.659Z,24.20
2023-01-19T16:57:42.011Z,23.38
2023-01-19T17:00:10.800Z,21.63
2023-01-19T17:02:39.787Z,21.98
2023-01-19T17:05:07.724Z,22.90
2023-01-19T17:07:35.087Z,22.77
2023-01-19T17:10:02.488Z,22.98
2023-01-19T17:12:32.147Z,23.17
2023-01-19T17:14:59.720Z,22.90
2023-01-19T17:17:27.089Z,21.35
2023-01-19T17:19:55.836Z,22.55
2023-01-19T17:22:23.262Z,21.70
2023-01-19T17:24:50.651Z,19.60
2023-01-19T17:27:18.080Z,19.05
2023-01-19T17:29:45.464Z,17.65
2023-01-19T17:32:12.823Z,20.23
2023-01-19T17:34:40.521Z,19.73
2023-01-19T17:37:09.213Z,17.23
2023-01-19T17:39:36.563Z,20.50
2023-01-19T17:42:04.023Z,20.75
2023-01-19T17:44:31.361Z,18.30
2023-01-19T17:47:00.016Z,18.85
2023-01-19T17:49:27.629Z,21.85
2023-01-19T17:51:55.718Z,20.17
2023-01-19T17:54:24.419Z,21.23
2023-01-19T17:56:51.749Z,18.05
2023-01-19T17:59:19.148Z,21.40
2023-01-19T18:01:46.765Z,22.13
2023-01-19T18:04:14.149Z,22.92
2023-01-19T18:06:41.553Z,21.00
2023-01-19T18:09:09.047Z,20.20
2023-01-19T18:11:37.819Z,20.02
2023-01-19T18:14:05.950Z,21.73
2023-01-19T18:16:33.418Z,23.33
2023-01-19T18:19:00.865Z,20.58
2023-01-19T18:21:30.144Z,19.52
2023-01-19T18:24:01.696Z,21.67
2023-01-19T18:26:29.175Z,21.63
2023-01-19T18:28:58.127Z,21.00
2023-01-19T18:31:26.177Z,22.67
2023-01-19T18:33:53.529Z,20.95
2023-01-19T18:36:21.057Z,21.10
2023-01-19T18:38:48.442Z,20.85
2023-01-19T18:41:17.006Z,23.27
2023-01-19T18:43:44.980Z,23.08
2023-01-19T18:46:14.144Z,23.48
2023-01-19T18:48:41.584Z,24.27
2023-01-19T18:51:09.987Z,26.95
2023-01-19T18:53:37.372Z,25.05
2023-01-19T18:56:05.458Z,24.65
2023-01-19T18:58:33.524Z,25.27
2023-01-19T19:01:01.738Z,25.05
2023-01-19T19:03:30.505Z,24.60
2023-01-19T19:05:57.936Z,25.63
2023-01-19T19:08:25.302Z,25.83
2023-01-19T19:10:52.621Z,27.92
2023-01-19T19:13:21.753Z,26.88
2023-01-19T19:15:49.200Z,29.95
2023-01-19T19:18:16.593Z,28.58
2023-01-19T19:20:45.409Z,28.23
2023-01-19T19:23:12.792Z,28.60
2023-01-19T19:25:40.173Z,28.20
2023-01-19T19:28:07.675Z,27.98
2023-01-19T19:30:37.624Z,29.02
2023-01-19T19:33:05.172Z,29.00
2023-01-19T19:35:32.556Z,30.95
2023-01-19T19:38:01.231Z,28.80
2023-01-19T19:40:29.371Z,26.20
2023-01-19T19:42:58.695Z,26.67
2023-01-19T19:45:26.723Z,28.45
2023-01-19T19:47:54.079Z,27.67
2023-01-19T19:50:21.491Z,24.92
2023-01-19T19:52:48.895Z,26.52
2023-01-19T19:55:17.662Z,25.33
2023-01-19T19:57:45.066Z,24.92
2023-01-19T20:00:12.973Z,25.80
2023-01-19T20:02:40.463Z,23.92
2023-01-19T20:05:08.089Z,21.58
2023-01-19T20:07:35.492Z,21.30
2023-01-19T20:10:02.844Z,24.25
2023-01-19T20:12:31.581Z,23.55
2023-01-19T20:14:58.918Z,27.67
2023-01-19T20:17:26.259Z,28.13
2023-01-19T20:19:53.998Z,25.90
2023-01-19T20:22:21.343Z,26.38
2023-01-19T20:24:51.230Z,24.55
2023-01-19T20:27:18.592Z,26.05
2023-01-19T20:29:51.709Z,25.92
2023-01-19T20:32:19.259Z,23.45
2023-01-19T20:34:47.882Z,23.33
2023-01-19T20:37:15.279Z,23.52
2023-01-19T20:39:43.030Z,23.27
2023-01-19T20:42:11.462Z,24.48
2023-01-19T20:44:38.818Z,22.40
2023-01-19T20:47:09.187Z,24.25
2023-01-19T20:49:37.072Z,25.15
2023-01-19T20:54:31.693Z,25.98
2023-01-19T20:56:59.660Z,25.40
2023-01-19T20:59:27.827Z,25.73
2023-01-19T21:01:55.603Z,27.02
2023-01-19T21:04:24.609Z,24.48
2023-01-19T21:06:51.990Z,26.23
2023-01-19T21:09:19.407Z,26.30
2023-01-19T21:11:46.789Z,27.75
2023-01-19T21:14:14.209Z,27.52
2023-01-19T21:16:42.429Z,25.30
2023-01-19T21:19:09.867Z,24.52
2023-01-19T21:21:38.578Z,22.00
2023-01-19T21:24:06.104Z,22.15
2023-01-19T21:26:34.125Z,21.77
2023-01-19T21:29:02.393Z,20.08
2023-01-19T21:31:30.035Z,22.42
2023-01-19T21:33:57.780Z,21.25
2023-01-19T21:36:25.546Z,22.08
2023-01-19T21:38:59.965Z,21.95
2023-01-19T21:41:28.125Z,22.25
2023-01-19T21:43:55.492Z,21.92
2023-01-19T21:46:28.724Z,22.42
2023-01-19T21:48:56.612Z,20.95
2023-01-19T21:53:52.075Z,17.73
2023-01-19T21:56:20.941Z,22.73
2023-01-19T21:58:48.350Z,23.08
2023-01-19T22:01:15.894Z,24.15
2023-01-19T22:03:43.381Z,22.95
2023-01-19T22:06:12.130Z,21.38
2023-01-19T22:08:40.613Z,24.98
2023-01-19T22:11:08.772Z,24.70
2023-01-19T22:13:38.455Z,25.98
2023-01-19T22:16:08.536Z,28.10
2023-01-19T22:18:36.164Z,24.58
2023-01-19T22:21:09.968Z,28.92
2023-01-19T22:23:37.365Z,26.13
2023-01-19T22:26:05.284Z,25.67
2023-01-19T22:28:33.024Z,25.70
2023-01-19T22:31:05.220Z,27.13
2023-01-19T22:33:32.720Z,27.23
2023-01-19T22:36:13.390Z,26.88
2023-01-19T22:38:41.181Z,24.35
2023-01-19T22:41:12.493Z,26.55
2023-01-19T22:43:39.842Z,25.10
2023-01-19T22:46:08.870Z,24.60
2023-01-19T22:48:36.362Z,25.10
2023-01-19T22:51:03.724Z,24.27
2023-01-19T22:53:31.317Z,28.50
2023-01-19T22:55:58.666Z,26.80
2023-01-19T22:58:26.041Z,23.23
2023-01-19T23:00:53.416Z,28.77
2023-01-19T23:03:22.113Z,27.48
2023-01-19T23:05:49.485Z,27.52
2023-01-19T23:08:16.840Z,28.90
2023-01-19T23:10:44.209Z,30.92
2023-01-19T23:13:11.611Z,29.85
2023-01-19T23:15:38.963Z,29.55
2023-01-19T23:18:08.763Z,29.65
2023-01-19T23:20:37.472Z,30.95
2023-01-19T23:23:05.057Z,30.88
2023-01-19T23:25:32.456Z,27.00
2023-01-19T23:27:59.804Z,29.63
2023-01-19T23:30:27.314Z,28.52
2023-01-19T23:32:54.720Z,29.83
2023-01-19T23:35:22.079Z,31.17
2023-01-19T23:37:50.816Z,30.48
2023-01-19T23:40:18.311Z,29.52
2023-01-19T23:42:45.686Z,31.27
2023-01-19T23:45:13.369Z,29.05
2023-01-19T23:50:10.656Z,30.90
2023-01-19T23:52:38.528Z,29.50
2023-01-19T23:57:34.483Z,29.27
